SFR850 FAOR-FIMP
Flight info
| Callsign | SFR850 |
|---|---|
| Flight time | N/A |
| Altitude | 35000 |
| Route | EXOBI1A EXOBI UT122 ORNAD UG653 SDG UA401 SOBAT |
| Aircraft | B738/M-SDE2E3FGHIRWXY/LB1 |
Departure
| Time | 2026-05-04 07:27 |
|---|---|
| Airport | O.R. Tambo International Airport (FAOR) |
Arrival
| Time | N/A |
|---|---|
| Airport | Sir Seewoosagur Ramgoolam International Airport (FIMP) |
| Time | Latitude | Longitude | Altitude | Speed | Heading |
|---|---|---|---|---|---|
| 2026-05-04 07:13 | -26.12894 | 28.23315 | 5549 ft | 0 kts | 186° |
| 2026-05-04 07:17 | -26.12875 | 28.23317 | 5548 ft | 4 kts | 186° |
| 2026-05-04 07:17 | -26.12853 | 28.23320 | 5548 ft | 2 kts | 186° |
| 2026-05-04 07:18 | -26.12827 | 28.23323 | 5547 ft | 4 kts | 188° |
| 2026-05-04 07:18 | -26.12801 | 28.23327 | 5548 ft | 4 kts | 178° |
| 2026-05-04 07:18 | -26.12786 | 28.23325 | 5547 ft | 3 kts | 162° |
| 2026-05-04 07:18 | -26.12805 | 28.23339 | 5548 ft | 4 kts | 121° |
| 2026-05-04 07:19 | -26.12804 | 28.23362 | 5548 ft | 4 kts | 80° |
| 2026-05-04 07:19 | -26.12799 | 28.23390 | 5547 ft | 4 kts | 92° |
| 2026-05-04 07:19 | -26.12800 | 28.23396 | 5547 ft | 2 kts | 96° |
| 2026-05-04 07:20 | -26.12800 | 28.23395 | 5547 ft | 0 kts | 96° |
| 2026-05-04 07:22 | -26.12826 | 28.23670 | 5545 ft | 12 kts | 96° |
| 2026-05-04 07:22 | -26.12840 | 28.23755 | 5547 ft | 11 kts | 117° |
| 2026-05-04 07:23 | -26.12908 | 28.23769 | 5545 ft | 12 kts | 194° |
| 2026-05-04 07:23 | -26.13009 | 28.23738 | 5545 ft | 18 kts | 195° |
| 2026-05-04 07:23 | -26.13151 | 28.23694 | 5545 ft | 24 kts | 195° |
| 2026-05-04 07:23 | -26.13320 | 28.23642 | 5548 ft | 25 kts | 195° |
| 2026-05-04 07:24 | -26.13483 | 28.23591 | 5551 ft | 23 kts | 195° |
| 2026-05-04 07:24 | -26.13638 | 28.23543 | 5552 ft | 24 kts | 195° |
| 2026-05-04 07:24 | -26.13794 | 28.23495 | 5557 ft | 23 kts | 195° |
| 2026-05-04 07:24 | -26.13951 | 28.23447 | 5559 ft | 24 kts | 195° |
| 2026-05-04 07:25 | -26.14105 | 28.23399 | 5563 ft | 23 kts | 195° |
| 2026-05-04 07:26 | -26.14541 | 28.23467 | 5565 ft | 25 kts | 15° |
| 2026-05-04 07:27 | -26.14157 | 28.23586 | 5565 ft | 88 kts | 15° |
| 2026-05-04 07:27 | -26.13377 | 28.23828 | 5548 ft | 144 kts | 16° |
| 2026-05-04 07:27 | -26.12276 | 28.24160 | 5586 ft | 183 kts | 13° |
| 2026-05-04 07:27 | -26.11045 | 28.24537 | 6306 ft | 180 kts | 13° |
| 2026-05-04 07:28 | -26.09850 | 28.24940 | 7051 ft | 181 kts | 13° |
| 2026-05-04 07:28 | -26.08603 | 28.25417 | 7419 ft | 202 kts | 18° |
| 2026-05-04 07:28 | -26.07414 | 28.26410 | 7538 ft | 233 kts | 56° |
| 2026-05-04 07:28 | -26.07010 | 28.28226 | 7756 ft | 257 kts | 90° |
| 2026-05-04 07:29 | -26.07137 | 28.30272 | 8012 ft | 273 kts | 93° |
| 2026-05-04 07:29 | -26.07269 | 28.32470 | 8240 ft | 295 kts | 92° |
| 2026-05-04 07:29 | -26.07360 | 28.34784 | 8828 ft | 303 kts | 91° |
| 2026-05-04 07:29 | -26.07404 | 28.37140 | 9556 ft | 306 kts | 90° |
| 2026-05-04 07:30 | -26.07407 | 28.39511 | 10306 ft | 308 kts | 89° |
| 2026-05-04 07:30 | -26.07382 | 28.41921 | 10795 ft | 320 kts | 88° |
| 2026-05-04 07:30 | -26.07345 | 28.44483 | 10947 ft | 342 kts | 88° |
| 2026-05-04 07:30 | -26.07290 | 28.47197 | 11198 ft | 358 kts | 88° |
| 2026-05-04 07:31 | -26.07219 | 28.49955 | 11759 ft | 363 kts | 87° |
| 2026-05-04 07:31 | -26.07135 | 28.52759 | 12488 ft | 362 kts | 86° |
| 2026-05-04 07:33 | -26.06418 | 28.72834 | 16367 ft | 385 kts | 85° |
| 2026-05-04 07:33 | -26.06307 | 28.75819 | 16881 ft | 388 kts | 85° |
| 2026-05-04 07:33 | -26.06195 | 28.78797 | 17366 ft | 392 kts | 85° |
| 2026-05-04 07:33 | -26.06081 | 28.81840 | 17850 ft | 396 kts | 85° |
| 2026-05-04 07:34 | -26.05964 | 28.84907 | 18317 ft | 400 kts | 85° |
| 2026-05-04 07:34 | -26.05846 | 28.88011 | 18766 ft | 403 kts | 85° |
| 2026-05-04 07:34 | -26.05726 | 28.91140 | 19173 ft | 407 kts | 85° |
| 2026-05-04 07:34 | -26.05605 | 28.94297 | 19582 ft | 410 kts | 85° |
| 2026-05-04 07:35 | -26.05482 | 28.97477 | 20025 ft | 412 kts | 85° |
| 2026-05-04 07:35 | -26.05357 | 29.00674 | 20492 ft | 415 kts | 85° |
| 2026-05-04 07:35 | -26.05231 | 29.03894 | 20875 ft | 419 kts | 85° |
| 2026-05-04 07:35 | -26.05104 | 29.07138 | 21264 ft | 423 kts | 85° |
| 2026-05-04 07:36 | -26.04974 | 29.10428 | 21664 ft | 426 kts | 85° |
| 2026-05-04 07:36 | -26.04842 | 29.13727 | 22082 ft | 429 kts | 85° |
| 2026-05-04 07:38 | -26.03946 | 29.37409 | 24720 ft | 448 kts | 85° |
| 2026-05-04 07:38 | -26.03813 | 29.40882 | 25034 ft | 451 kts | 85° |
| 2026-05-04 07:38 | -26.03678 | 29.44369 | 25354 ft | 453 kts | 85° |
| 2026-05-04 07:38 | -26.03542 | 29.47870 | 25674 ft | 455 kts | 85° |
| 2026-05-04 07:39 | -26.03403 | 29.51400 | 25973 ft | 458 kts | 85° |
| 2026-05-04 07:39 | -26.03263 | 29.54940 | 26257 ft | 460 kts | 86° |
| 2026-05-04 07:39 | -26.03122 | 29.58504 | 26567 ft | 462 kts | 86° |
| 2026-05-04 07:39 | -26.02979 | 29.62077 | 26851 ft | 464 kts | 86° |
| 2026-05-04 07:40 | -26.02837 | 29.65619 | 27117 ft | 467 kts | 86° |
| 2026-05-04 07:40 | -26.02691 | 29.69228 | 27375 ft | 469 kts | 86° |
| 2026-05-04 07:40 | -26.02543 | 29.72860 | 27638 ft | 471 kts | 86° |
| 2026-05-04 07:40 | -26.02393 | 29.76515 | 27910 ft | 473 kts | 86° |
| 2026-05-04 07:41 | -26.02243 | 29.80169 | 28161 ft | 476 kts | 86° |
| 2026-05-04 07:41 | -26.02090 | 29.83858 | 28391 ft | 478 kts | 86° |
| 2026-05-04 07:41 | -26.01936 | 29.87550 | 28661 ft | 479 kts | 86° |
| 2026-05-04 07:41 | -26.01780 | 29.91253 | 28908 ft | 481 kts | 86° |
| 2026-05-04 07:42 | -26.01623 | 29.94972 | 29123 ft | 483 kts | 86° |
| 2026-05-04 07:42 | -26.01464 | 29.98717 | 29338 ft | 486 kts | 86° |
| 2026-05-04 07:42 | -26.01304 | 30.02470 | 29553 ft | 487 kts | 86° |
| 2026-05-04 07:42 | -26.01141 | 30.06241 | 29779 ft | 489 kts | 86° |
| 2026-05-04 07:43 | -26.00980 | 30.09975 | 29981 ft | 491 kts | 86° |
| 2026-05-04 07:43 | -26.00815 | 30.13776 | 30190 ft | 493 kts | 86° |
| 2026-05-04 07:43 | -26.00647 | 30.17592 | 30386 ft | 495 kts | 86° |
| 2026-05-04 07:43 | -26.00479 | 30.21419 | 30556 ft | 497 kts | 86° |
| 2026-05-04 07:44 | -26.00309 | 30.25259 | 30725 ft | 498 kts | 86° |
| 2026-05-04 07:44 | -26.00137 | 30.29106 | 30924 ft | 499 kts | 86° |
| 2026-05-04 07:44 | -25.99965 | 30.32956 | 31171 ft | 498 kts | 86° |
| 2026-05-04 07:44 | -25.99791 | 30.36793 | 31425 ft | 497 kts | 86° |
| 2026-05-04 07:45 | -25.99617 | 30.40630 | 31635 ft | 498 kts | 86° |
| 2026-05-04 07:45 | -25.99442 | 30.44483 | 31823 ft | 499 kts | 86° |
| 2026-05-04 07:45 | -25.99265 | 30.48332 | 32064 ft | 498 kts | 86° |
| 2026-05-04 07:45 | -25.99087 | 30.52178 | 32289 ft | 498 kts | 86° |
| 2026-05-04 07:46 | -25.98912 | 30.55966 | 32487 ft | 499 kts | 86° |
| 2026-05-04 07:46 | -25.98732 | 30.59820 | 32710 ft | 499 kts | 86° |
| 2026-05-04 07:46 | -25.98551 | 30.63672 | 32930 ft | 499 kts | 86° |
| 2026-05-04 07:46 | -25.98368 | 30.67514 | 33163 ft | 499 kts | 86° |
| 2026-05-04 07:47 | -25.98185 | 30.71356 | 33384 ft | 499 kts | 86° |
| 2026-05-04 07:47 | -25.97999 | 30.75212 | 33611 ft | 498 kts | 86° |
| 2026-05-04 07:47 | -25.97814 | 30.79055 | 33832 ft | 498 kts | 86° |
| 2026-05-04 07:49 | -25.96491 | 31.05920 | 35190 ft | 495 kts | 86° |
| 2026-05-04 07:49 | -25.96108 | 31.13581 | 35224 ft | 498 kts | 87° |
| 2026-05-04 07:50 | -25.95750 | 31.21312 | 35218 ft | 503 kts | 87° |
| 2026-05-04 07:50 | -25.95366 | 31.29101 | 35220 ft | 507 kts | 86° |
| 2026-05-04 07:51 | -25.94956 | 31.36879 | 35189 ft | 500 kts | 86° |
| 2026-05-04 07:51 | -25.94553 | 31.44487 | 35181 ft | 496 kts | 86° |
| 2026-05-04 07:52 | -25.94148 | 31.52140 | 35187 ft | 496 kts | 86° |
| 2026-05-04 07:52 | -25.93740 | 31.59785 | 35179 ft | 496 kts | 86° |
| 2026-05-04 07:54 | -25.92057 | 31.90386 | 35148 ft | 499 kts | 86° |
| 2026-05-04 07:55 | -25.91618 | 31.98076 | 35131 ft | 499 kts | 86° |
| 2026-05-04 07:55 | -25.91068 | 32.05774 | 35129 ft | 500 kts | 85° |
| 2026-05-04 07:56 | -25.90474 | 32.13457 | 35125 ft | 499 kts | 85° |
| 2026-05-04 07:56 | -25.89892 | 32.21095 | 35101 ft | 499 kts | 85° |
| 2026-05-04 07:57 | -25.89316 | 32.28768 | 35091 ft | 499 kts | 85° |
| 2026-05-04 07:57 | -25.88737 | 32.36434 | 35081 ft | 498 kts | 85° |
| 2026-05-04 07:58 | -25.88155 | 32.44089 | 35077 ft | 497 kts | 85° |
| 2026-05-04 07:58 | -25.87569 | 32.51737 | 35074 ft | 497 kts | 85° |
| 2026-05-04 07:59 | -25.86983 | 32.59327 | 35077 ft | 496 kts | 84° |
| 2026-05-04 07:59 | -25.85885 | 32.66877 | 35086 ft | 495 kts | 77° |
| 2026-05-04 08:00 | -25.84412 | 32.74344 | 35078 ft | 495 kts | 77° |
| 2026-05-04 08:02 | -25.78734 | 33.04211 | 35103 ft | 496 kts | 77° |
| 2026-05-04 08:02 | -25.77328 | 33.11695 | 35114 ft | 496 kts | 77° |
| 2026-05-04 08:03 | -25.75923 | 33.19140 | 35118 ft | 496 kts | 77° |
| 2026-05-04 08:03 | -25.74504 | 33.26634 | 35119 ft | 497 kts | 77° |
| 2026-05-04 08:04 | -25.73081 | 33.34133 | 35118 ft | 497 kts | 77° |
| 2026-05-04 08:04 | -25.71653 | 33.41629 | 35119 ft | 497 kts | 77° |
| 2026-05-04 08:05 | -25.70231 | 33.49080 | 35120 ft | 497 kts | 77° |
| 2026-05-04 08:05 | -25.68795 | 33.56576 | 35121 ft | 497 kts | 77° |
| 2026-05-04 08:06 | -25.67355 | 33.64073 | 35120 ft | 497 kts | 77° |
| 2026-05-04 08:06 | -25.65912 | 33.71564 | 35122 ft | 497 kts | 77° |
| 2026-05-04 08:08 | -25.60115 | 34.01454 | 35128 ft | 496 kts | 77° |
| 2026-05-04 08:11 | -25.53801 | 34.35062 | 35129 ft | 496 kts | 77° |
| 2026-05-04 08:11 | -25.51713 | 34.46222 | 35133 ft | 496 kts | 77° |
| 2026-05-04 08:12 | -25.50309 | 34.53698 | 35135 ft | 496 kts | 77° |
| 2026-05-04 08:12 | -25.48900 | 34.61178 | 35138 ft | 496 kts | 77° |
| 2026-05-04 08:13 | -25.47497 | 34.68605 | 35134 ft | 497 kts | 77° |
| 2026-05-04 08:13 | -25.46079 | 34.76087 | 35131 ft | 497 kts | 77° |
| 2026-05-04 08:14 | -25.44657 | 34.83574 | 35138 ft | 497 kts | 77° |
| 2026-05-04 08:16 | -25.38929 | 35.13501 | 35138 ft | 498 kts | 77° |
| 2026-05-04 08:16 | -25.37484 | 35.20998 | 35141 ft | 498 kts | 77° |
| 2026-05-04 08:17 | -25.36036 | 35.28490 | 35137 ft | 498 kts | 76° |
| 2026-05-04 08:17 | -25.34596 | 35.35919 | 35142 ft | 498 kts | 76° |
| 2026-05-04 08:19 | -25.28766 | 35.65779 | 35147 ft | 498 kts | 76° |
| 2026-05-04 08:20 | -25.27297 | 35.73250 | 35148 ft | 498 kts | 76° |
| 2026-05-04 08:20 | -25.25823 | 35.80726 | 35146 ft | 498 kts | 76° |
| 2026-05-04 08:21 | -25.24344 | 35.88208 | 35156 ft | 498 kts | 76° |
| 2026-05-04 08:21 | -25.22871 | 35.95637 | 35152 ft | 499 kts | 76° |
| 2026-05-04 08:22 | -25.21382 | 36.03126 | 35154 ft | 499 kts | 76° |
| 2026-05-04 08:24 | -25.15390 | 36.33059 | 35149 ft | 501 kts | 76° |
| 2026-05-04 08:24 | -25.13877 | 36.40569 | 35154 ft | 501 kts | 76° |
| 2026-05-04 08:25 | -25.12361 | 36.48071 | 35153 ft | 501 kts | 76° |
| 2026-05-04 08:25 | -25.10845 | 36.55537 | 35147 ft | 502 kts | 75° |
| 2026-05-04 08:27 | -25.04167 | 36.85472 | 35157 ft | 504 kts | 74° |
| 2026-05-04 08:28 | -25.02500 | 36.92928 | 35155 ft | 504 kts | 74° |
| 2026-05-04 08:28 | -25.00819 | 37.00433 | 35152 ft | 505 kts | 73° |
| 2026-05-04 08:29 | -24.99127 | 37.07960 | 35158 ft | 506 kts | 73° |
| 2026-05-04 08:31 | -24.92319 | 37.38059 | 35165 ft | 508 kts | 73° |
| 2026-05-04 08:33 | -24.85415 | 37.68279 | 35161 ft | 511 kts | 73° |
| 2026-05-04 08:35 | -24.78427 | 37.98565 | 35159 ft | 512 kts | 73° |
| 2026-05-04 08:35 | -24.76665 | 38.06155 | 35162 ft | 512 kts | 73° |
| 2026-05-04 08:37 | -24.70480 | 38.32650 | 35163 ft | 512 kts | 73° |
| 2026-05-04 08:38 | -24.68701 | 38.40231 | 35160 ft | 512 kts | 73° |
| 2026-05-04 08:38 | -24.66918 | 38.47809 | 35170 ft | 512 kts | 73° |
| 2026-05-04 08:40 | -24.59758 | 38.78055 | 35159 ft | 511 kts | 73° |
| 2026-05-04 08:41 | -24.57960 | 38.85609 | 35157 ft | 511 kts | 73° |
| 2026-05-04 08:41 | -24.56167 | 38.93121 | 35157 ft | 511 kts | 73° |
| 2026-05-04 08:42 | -24.54360 | 39.00671 | 35155 ft | 511 kts | 73° |
| 2026-05-04 08:42 | -24.52548 | 39.08229 | 35156 ft | 511 kts | 73° |
| 2026-05-04 08:43 | -24.50733 | 39.15775 | 35149 ft | 512 kts | 73° |
| 2026-05-04 08:43 | -24.48914 | 39.23326 | 35159 ft | 512 kts | 73° |
| 2026-05-04 08:44 | -24.47102 | 39.30832 | 35153 ft | 512 kts | 73° |
| 2026-05-04 08:46 | -24.39771 | 39.61009 | 35147 ft | 513 kts | 73° |
| 2026-05-04 08:46 | -24.37922 | 39.68575 | 35146 ft | 513 kts | 73° |
| 2026-05-04 08:47 | -24.36069 | 39.76141 | 35157 ft | 514 kts | 72° |
| 2026-05-04 08:47 | -24.34211 | 39.83710 | 35146 ft | 514 kts | 73° |
| 2026-05-04 08:48 | -24.32364 | 39.91220 | 35148 ft | 514 kts | 73° |
| 2026-05-04 08:48 | -24.30499 | 39.98788 | 35153 ft | 514 kts | 72° |
| 2026-05-04 08:49 | -24.28688 | 40.06345 | 35138 ft | 514 kts | 74° |
| 2026-05-04 08:50 | -24.22561 | 40.32888 | 35141 ft | 514 kts | 74° |
| 2026-05-04 08:51 | -24.21088 | 40.39190 | 35137 ft | 514 kts | 74° |
| 2026-05-04 08:51 | -24.19311 | 40.46771 | 35141 ft | 514 kts | 73° |
| 2026-05-04 08:52 | -24.17531 | 40.54351 | 35131 ft | 514 kts | 74° |
| 2026-05-04 08:52 | -24.15462 | 40.63143 | 35135 ft | 513 kts | 74° |
| 2026-05-04 08:54 | -24.08603 | 40.92114 | 35127 ft | 513 kts | 74° |
| 2026-05-04 08:55 | -24.06818 | 40.99612 | 35134 ft | 513 kts | 73° |
| 2026-05-04 08:55 | -24.05018 | 41.07153 | 35130 ft | 512 kts | 73° |
| 2026-05-04 09:01 | -23.85911 | 41.86154 | 35123 ft | 514 kts | 74° |
| 2026-05-04 09:01 | -23.84063 | 41.93697 | 35116 ft | 514 kts | 73° |
| 2026-05-04 09:02 | -23.82208 | 42.01250 | 35107 ft | 515 kts | 74° |
| 2026-05-04 09:02 | -23.80363 | 42.08744 | 35113 ft | 514 kts | 73° |
| 2026-05-04 09:03 | -23.78503 | 42.16284 | 35111 ft | 514 kts | 73° |
| 2026-05-04 09:03 | -23.76640 | 42.23819 | 35119 ft | 514 kts | 74° |
| 2026-05-04 09:04 | -23.74773 | 42.31353 | 35100 ft | 514 kts | 74° |
| 2026-05-04 09:04 | -23.72904 | 42.38878 | 35105 ft | 513 kts | 73° |
| 2026-05-04 09:05 | -23.71046 | 42.46342 | 35094 ft | 513 kts | 73° |
| 2026-05-04 09:05 | -23.69174 | 42.53844 | 35093 ft | 513 kts | 73° |
| 2026-05-04 09:06 | -23.67299 | 42.61344 | 35097 ft | 512 kts | 73° |
| 2026-05-04 09:08 | -23.59783 | 42.91236 | 35080 ft | 512 kts | 73° |
| 2026-05-04 09:08 | -23.57893 | 42.98713 | 35091 ft | 512 kts | 73° |
| 2026-05-04 09:09 | -23.56012 | 43.06140 | 35084 ft | 512 kts | 73° |
| 2026-05-04 09:09 | -23.54113 | 43.13617 | 35079 ft | 512 kts | 73° |
| 2026-05-04 09:10 | -23.52211 | 43.21093 | 35080 ft | 512 kts | 73° |
| 2026-05-04 09:10 | -23.50305 | 43.28567 | 35076 ft | 512 kts | 73° |
| 2026-05-04 09:11 | -23.48396 | 43.36038 | 35067 ft | 512 kts | 73° |
| 2026-05-04 09:11 | -23.46497 | 43.43457 | 35058 ft | 512 kts | 73° |
| 2026-05-04 09:12 | -23.44581 | 43.50923 | 35053 ft | 512 kts | 73° |
| 2026-05-04 09:14 | -23.37429 | 43.80850 | 35054 ft | 511 kts | 79° |
| 2026-05-04 09:14 | -23.36202 | 43.88471 | 35049 ft | 512 kts | 80° |
| 2026-05-04 09:15 | -23.34944 | 43.96091 | 35053 ft | 511 kts | 79° |
| 2026-05-04 09:15 | -23.33634 | 44.03695 | 35061 ft | 511 kts | 79° |
| 2026-05-04 09:17 | -23.27620 | 44.37808 | 35064 ft | 510 kts | 79° |
| 2026-05-04 09:18 | -23.26276 | 44.45385 | 35062 ft | 510 kts | 79° |
| 2026-05-04 09:18 | -23.24936 | 44.52917 | 35065 ft | 511 kts | 79° |
| 2026-05-04 09:19 | -23.23584 | 44.60491 | 35058 ft | 510 kts | 79° |
| 2026-05-04 09:19 | -23.22229 | 44.68066 | 35063 ft | 510 kts | 79° |
| 2026-05-04 09:20 | -23.20871 | 44.75632 | 35063 ft | 510 kts | 79° |
| 2026-05-04 09:20 | -23.19518 | 44.83151 | 35060 ft | 510 kts | 79° |
| 2026-05-04 09:21 | -23.18153 | 44.90711 | 35064 ft | 510 kts | 79° |
| 2026-05-04 09:21 | -23.16785 | 44.98270 | 35070 ft | 510 kts | 79° |
| 2026-05-04 09:22 | -23.15413 | 45.05828 | 35060 ft | 510 kts | 79° |
| 2026-05-04 09:22 | -23.14038 | 45.13380 | 35067 ft | 509 kts | 79° |
| 2026-05-04 09:23 | -23.12669 | 45.20879 | 35072 ft | 509 kts | 78° |
| 2026-05-04 09:23 | -23.11288 | 45.28422 | 35067 ft | 509 kts | 79° |
| 2026-05-04 09:25 | -23.05737 | 45.58536 | 35075 ft | 508 kts | 79° |
| 2026-05-04 09:26 | -23.04350 | 45.66010 | 35075 ft | 508 kts | 79° |
| 2026-05-04 09:26 | -23.02950 | 45.73530 | 35076 ft | 508 kts | 79° |
| 2026-05-04 09:27 | -23.01546 | 45.81049 | 35084 ft | 508 kts | 79° |
| 2026-05-04 09:27 | -23.00139 | 45.88569 | 35093 ft | 508 kts | 79° |
| 2026-05-04 09:28 | -22.98728 | 45.96088 | 35100 ft | 508 kts | 79° |
| 2026-05-04 09:28 | -22.97323 | 46.03554 | 35117 ft | 509 kts | 79° |
| 2026-05-04 09:29 | -22.95904 | 46.11077 | 35116 ft | 509 kts | 79° |
| 2026-05-04 09:29 | -22.94481 | 46.18594 | 35132 ft | 509 kts | 79° |
| 2026-05-04 09:30 | -22.93056 | 46.26109 | 35108 ft | 508 kts | 79° |
| 2026-05-04 09:30 | -22.91642 | 46.33545 | 35129 ft | 507 kts | 79° |
| 2026-05-04 09:31 | -22.90212 | 46.41038 | 35135 ft | 508 kts | 79° |
| 2026-05-04 09:31 | -22.88778 | 46.48537 | 35124 ft | 508 kts | 79° |
| 2026-05-04 09:32 | -22.87337 | 46.56054 | 35122 ft | 509 kts | 79° |
| 2026-05-04 09:34 | -22.81549 | 46.86044 | 35124 ft | 509 kts | 79° |
| 2026-05-04 09:34 | -22.80101 | 46.93497 | 35118 ft | 509 kts | 79° |
| 2026-05-04 09:35 | -22.78641 | 47.00993 | 35134 ft | 509 kts | 79° |
| 2026-05-04 09:35 | -22.77177 | 47.08488 | 35115 ft | 509 kts | 79° |
| 2026-05-04 09:37 | -22.71305 | 47.38362 | 35125 ft | 507 kts | 79° |
| 2026-05-04 09:38 | -22.69828 | 47.45824 | 35123 ft | 507 kts | 79° |
| 2026-05-04 09:38 | -22.68345 | 47.53301 | 35114 ft | 507 kts | 79° |
| 2026-05-04 09:39 | -22.66861 | 47.60765 | 35128 ft | 507 kts | 79° |
| 2026-05-04 09:39 | -22.65382 | 47.68185 | 35110 ft | 508 kts | 79° |
| 2026-05-04 09:40 | -22.63890 | 47.75652 | 35119 ft | 507 kts | 79° |
| 2026-05-04 09:40 | -22.62395 | 47.83115 | 35118 ft | 507 kts | 79° |
| 2026-05-04 09:42 | -22.56404 | 48.12831 | 35110 ft | 505 kts | 79° |
| 2026-05-04 09:43 | -22.54900 | 48.20248 | 35104 ft | 505 kts | 79° |
| 2026-05-04 09:43 | -22.53395 | 48.27658 | 35119 ft | 504 kts | 78° |
| 2026-05-04 09:44 | -22.51895 | 48.35022 | 35102 ft | 504 kts | 78° |
| 2026-05-04 09:46 | -22.45837 | 48.64578 | 35115 ft | 503 kts | 78° |
| 2026-05-04 09:46 | -22.44326 | 48.71905 | 35116 ft | 503 kts | 78° |
| 2026-05-04 09:47 | -22.42802 | 48.79278 | 35106 ft | 502 kts | 78° |
| 2026-05-04 09:49 | -22.36692 | 49.08660 | 35107 ft | 502 kts | 78° |
| 2026-05-04 09:51 | -22.31285 | 49.34429 | 35098 ft | 504 kts | 78° |
| 2026-05-04 09:51 | -22.29729 | 49.41806 | 35079 ft | 504 kts | 78° |
| 2026-05-04 09:52 | -22.28170 | 49.49180 | 35098 ft | 503 kts | 78° |
| 2026-05-04 09:52 | -22.26608 | 49.56550 | 35104 ft | 503 kts | 78° |
| 2026-05-04 09:53 | -22.25045 | 49.63905 | 35088 ft | 503 kts | 78° |
| 2026-05-04 09:53 | -22.23491 | 49.71202 | 35086 ft | 502 kts | 78° |
| 2026-05-04 09:54 | -22.21928 | 49.78527 | 35097 ft | 501 kts | 78° |
| 2026-05-04 09:54 | -22.20361 | 49.85853 | 35087 ft | 500 kts | 78° |
| 2026-05-04 09:55 | -22.18796 | 49.93153 | 35074 ft | 499 kts | 78° |
| 2026-05-04 09:55 | -22.17229 | 50.00443 | 35100 ft | 499 kts | 78° |
| 2026-05-04 09:56 | -22.15670 | 50.07682 | 35088 ft | 499 kts | 78° |
| 2026-05-04 09:56 | -22.14096 | 50.14972 | 35098 ft | 499 kts | 77° |
| 2026-05-04 09:57 | -22.12519 | 50.22263 | 35097 ft | 499 kts | 77° |
| 2026-05-04 09:57 | -22.10937 | 50.29557 | 35087 ft | 499 kts | 77° |
| 2026-05-04 09:58 | -22.09352 | 50.36845 | 35090 ft | 499 kts | 77° |
| 2026-05-04 09:58 | -22.07776 | 50.44082 | 35096 ft | 499 kts | 77° |
| 2026-05-04 10:00 | -22.01436 | 50.73024 | 35085 ft | 495 kts | 77° |
| 2026-05-04 10:04 | -21.90344 | 51.23046 | 35085 ft | 491 kts | 77° |
| 2026-05-04 10:04 | -21.88746 | 51.30192 | 35085 ft | 491 kts | 77° |
| 2026-05-04 10:05 | -21.87153 | 51.37303 | 35096 ft | 492 kts | 76° |
| 2026-05-04 10:05 | -21.85543 | 51.44471 | 35072 ft | 493 kts | 76° |
| 2026-05-04 10:06 | -21.83930 | 51.51638 | 35089 ft | 493 kts | 76° |
| 2026-05-04 10:06 | -21.82307 | 51.58818 | 35093 ft | 494 kts | 76° |
| 2026-05-04 10:08 | -21.76614 | 51.83895 | 35087 ft | 493 kts | 76° |
| 2026-05-04 10:08 | -21.74984 | 51.91045 | 35077 ft | 492 kts | 76° |
| 2026-05-04 10:09 | -21.73364 | 51.98133 | 35076 ft | 491 kts | 76° |
| 2026-05-04 10:09 | -21.71732 | 52.05260 | 35090 ft | 490 kts | 76° |
| 2026-05-04 10:10 | -21.70099 | 52.12377 | 35079 ft | 490 kts | 76° |
| 2026-05-04 10:10 | -21.68464 | 52.19490 | 35083 ft | 490 kts | 76° |
| 2026-05-04 10:11 | -21.66836 | 52.26556 | 35079 ft | 490 kts | 76° |
| 2026-05-04 10:11 | -21.65195 | 52.33661 | 35086 ft | 490 kts | 76° |
| 2026-05-04 10:12 | -21.63552 | 52.40764 | 35073 ft | 489 kts | 76° |
| 2026-05-04 10:12 | -21.61908 | 52.47854 | 35062 ft | 489 kts | 76° |
| 2026-05-04 10:13 | -21.60271 | 52.54899 | 35100 ft | 489 kts | 76° |
| 2026-05-04 10:13 | -21.58623 | 52.61979 | 35075 ft | 489 kts | 76° |
| 2026-05-04 10:14 | -21.56970 | 52.69067 | 35077 ft | 489 kts | 76° |
| 2026-05-04 10:16 | -21.50350 | 52.97307 | 35073 ft | 487 kts | 76° |
| 2026-05-04 10:16 | -21.48688 | 53.04358 | 35073 ft | 487 kts | 76° |
| 2026-05-04 10:17 | -21.47021 | 53.11417 | 35072 ft | 487 kts | 76° |
| 2026-05-04 10:19 | -21.40339 | 53.39589 | 35069 ft | 488 kts | 76° |
| 2026-05-04 10:19 | -21.38661 | 53.46628 | 35067 ft | 487 kts | 76° |
| 2026-05-04 10:20 | -21.36977 | 53.53678 | 35056 ft | 487 kts | 76° |
| 2026-05-04 10:20 | -21.35304 | 53.60669 | 35070 ft | 488 kts | 76° |
| 2026-05-04 10:21 | -21.33612 | 53.67723 | 35075 ft | 489 kts | 76° |
| 2026-05-04 10:21 | -21.31914 | 53.74791 | 35065 ft | 491 kts | 76° |
| 2026-05-04 10:22 | -21.29350 | 53.85435 | 35069 ft | 492 kts | 75° |
| 2026-05-04 10:23 | -21.27647 | 53.92489 | 35068 ft | 492 kts | 75° |
| 2026-05-04 10:25 | -21.20776 | 54.20806 | 35068 ft | 491 kts | 75° |
| 2026-05-04 10:25 | -21.19052 | 54.27877 | 35076 ft | 490 kts | 75° |
| 2026-05-04 10:26 | -21.17325 | 54.34946 | 35061 ft | 490 kts | 75° |
| 2026-05-04 10:26 | -21.15606 | 54.41968 | 35064 ft | 490 kts | 75° |
| 2026-05-04 10:27 | -21.13876 | 54.49021 | 35063 ft | 490 kts | 75° |
| 2026-05-04 10:27 | -21.12145 | 54.56068 | 35059 ft | 489 kts | 75° |
| 2026-05-04 10:28 | -21.10410 | 54.63115 | 35055 ft | 489 kts | 75° |